createdAt,value
2023-02-17T00:00:23.610Z,20.67
2023-02-17T00:01:33.659Z,21.02
2023-02-17T00:02:36.000Z,20.35
2023-02-17T00:03:38.399Z,20.52
2023-02-17T00:04:40.815Z,24.80
2023-02-17T00:05:43.118Z,21.58
2023-02-17T00:06:45.410Z,23.65
2023-02-17T00:07:47.676Z,24.13
2023-02-17T00:08:50.782Z,23.02
2023-02-17T00:09:53.118Z,21.10
2023-02-17T00:10:57.688Z,21.70
2023-02-17T00:11:59.971Z,22.35
2023-02-17T00:13:02.328Z,22.92
2023-02-17T00:14:04.655Z,23.90
2023-02-17T00:15:07.597Z,22.83
2023-02-17T00:16:24.652Z,22.88
2023-02-17T00:17:26.959Z,21.40
2023-02-17T00:18:29.191Z,20.23
2023-02-17T00:19:31.546Z,20.42
2023-02-17T00:20:33.889Z,20.85
2023-02-17T00:21:36.135Z,23.65
2023-02-17T00:22:38.511Z,21.02
2023-02-17T00:23:40.785Z,20.38
2023-02-17T00:24:43.286Z,23.98
2023-02-17T00:25:45.715Z,22.17
2023-02-17T00:26:48.364Z,22.73
2023-02-17T00:27:50.662Z,25.10
2023-02-17T00:28:52.965Z,23.83
2023-02-17T00:29:55.223Z,23.73
2023-02-17T00:30:57.646Z,21.63
2023-02-17T00:32:00.052Z,22.25
2023-02-17T00:33:02.447Z,20.45
2023-02-17T00:34:04.704Z,21.95
2023-02-17T00:35:07.185Z,21.10
2023-02-17T00:36:13.469Z,19.35
2023-02-17T00:37:15.694Z,20.63
2023-02-17T00:38:17.961Z,19.80
2023-02-17T00:39:20.588Z,17.90
2023-02-17T00:40:24.531Z,17.70
2023-02-17T00:41:28.306Z,17.63
2023-02-17T00:42:32.823Z,20.25
2023-02-17T00:43:35.235Z,18.52
2023-02-17T00:44:37.644Z,19.35
2023-02-17T00:45:39.989Z,20.02
2023-02-17T00:46:42.326Z,18.92
2023-02-17T00:47:44.574Z,21.30
2023-02-17T00:48:48.254Z,17.00
2023-02-17T00:49:50.553Z,17.90
2023-02-17T00:50:54.111Z,18.02
2023-02-17T00:52:02.158Z,17.35
2023-02-17T00:53:04.429Z,16.25
2023-02-17T00:54:06.687Z,20.33
2023-02-17T00:55:09.023Z,19.10
2023-02-17T00:56:12.236Z,18.15
2023-02-17T00:57:14.527Z,17.00
2023-02-17T00:58:17.123Z,23.33
2023-02-17T00:59:19.422Z,24.50
2023-02-17T01:00:22.212Z,22.30
2023-02-17T01:01:24.597Z,19.50
2023-02-17T01:02:26.895Z,20.63
2023-02-17T01:03:29.764Z,17.65
2023-02-17T01:04:32.297Z,22.60
2023-02-17T01:05:34.730Z,21.75
2023-02-17T01:06:38.959Z,23.85
2023-02-17T01:07:42.515Z,23.10
2023-02-17T01:08:44.832Z,21.25
2023-02-17T01:09:47.201Z,21.98
2023-02-17T01:10:50.529Z,20.73
2023-02-17T01:11:52.860Z,24.67
2023-02-17T01:12:55.156Z,22.88
2023-02-17T01:14:01.391Z,22.25
2023-02-17T01:15:04.560Z,23.50
2023-02-17T01:16:07.289Z,23.67
2023-02-17T01:17:09.797Z,22.67
2023-02-17T01:18:12.120Z,18.50
2023-02-17T01:19:17.918Z,19.65
2023-02-17T01:20:23.135Z,23.88
2023-02-17T01:21:27.635Z,21.80
2023-02-17T01:22:30.238Z,22.83
2023-02-17T01:23:32.525Z,22.02
2023-02-17T01:24:34.808Z,22.55
2023-02-17T01:25:43.547Z,22.10
2023-02-17T01:26:46.138Z,20.90
2023-02-17T01:27:48.502Z,22.77
2023-02-17T01:28:52.417Z,20.58
2023-02-17T01:29:55.254Z,18.95
2023-02-17T01:30:57.720Z,19.73
2023-02-17T01:32:00.138Z,21.15
2023-02-17T01:33:02.632Z,22.27
2023-02-17T01:34:05.327Z,24.42
2023-02-17T01:35:07.938Z,24.35
2023-02-17T01:36:13.916Z,23.77
2023-02-17T01:37:16.284Z,25.85
2023-02-17T01:38:18.640Z,23.42
2023-02-17T01:39:20.939Z,21.17
2023-02-17T01:40:23.292Z,22.67
2023-02-17T01:41:27.805Z,22.55
2023-02-17T01:42:30.177Z,22.25
2023-02-17T01:43:33.420Z,24.25
2023-02-17T01:44:35.713Z,21.50
2023-02-17T01:45:50.512Z,21.67
2023-02-17T01:46:55.298Z,21.20
2023-02-17T01:48:00.369Z,25.05
2023-02-17T01:49:29.972Z,22.77
2023-02-17T01:50:39.776Z,20.75
2023-02-17T01:51:42.590Z,23.17
2023-02-17T01:52:45.342Z,23.63
2023-02-17T01:53:54.894Z,21.23
2023-02-17T01:55:00.725Z,25.02
2023-02-17T01:56:05.082Z,24.63
2023-02-17T01:57:07.895Z,23.45
2023-02-17T01:58:14.996Z,24.48
2023-02-17T01:59:21.826Z,24.50
2023-02-17T02:00:26.487Z,23.70
2023-02-17T02:01:31.361Z,23.50
2023-02-17T02:02:33.900Z,23.25
2023-02-17T02:03:37.596Z,22.20
2023-02-17T02:04:43.186Z,21.80
2023-02-17T02:05:45.711Z,23.27
2023-02-17T02:06:48.301Z,25.10
2023-02-17T02:07:51.244Z,23.02
2023-02-17T02:08:56.651Z,21.50
2023-02-17T02:09:59.609Z,21.73
2023-02-17T02:11:02.624Z,20.52
2023-02-17T02:12:18.181Z,22.60
2023-02-17T02:13:20.946Z,22.80
2023-02-17T02:14:23.485Z,26.15
2023-02-17T02:15:31.780Z,26.38
2023-02-17T02:16:40.104Z,23.35
2023-02-17T02:18:03.666Z,25.83
2023-02-17T02:19:36.229Z,24.33
2023-02-17T02:21:07.178Z,23.25
2023-02-17T02:22:29.972Z,25.20
2023-02-17T02:23:59.381Z,23.17
2023-02-17T02:25:26.182Z,22.98
2023-02-17T02:26:50.994Z,21.58
2023-02-17T02:28:28.323Z,24.85
2023-02-17T02:30:09.849Z,24.25
2023-02-17T02:31:32.474Z,24.92
2023-02-17T02:32:48.519Z,22.70
2023-02-17T02:33:56.762Z,21.73
2023-02-17T02:35:11.691Z,24.67
2023-02-17T02:36:22.954Z,26.27
2023-02-17T02:37:31.034Z,25.67
2023-02-17T02:38:57.514Z,26.33
2023-02-17T02:40:05.465Z,26.38
2023-02-17T02:41:21.515Z,26.20
2023-02-17T02:42:27.123Z,25.88
2023-02-17T02:43:30.517Z,27.08
2023-02-17T02:44:34.293Z,28.40
2023-02-17T02:45:36.775Z,26.00
2023-02-17T02:46:39.264Z,25.08
2023-02-17T02:47:54.765Z,30.95
2023-02-17T02:49:00.386Z,26.33
2023-02-17T02:50:03.527Z,26.40
2023-02-17T02:51:18.679Z,27.25
2023-02-17T02:52:55.817Z,25.50
2023-02-17T02:54:23.844Z,26.60
2023-02-17T02:55:45.239Z,28.40
2023-02-17T02:57:11.513Z,27.83
2023-02-17T02:58:20.396Z,24.85
2023-02-17T02:59:48.730Z,28.05
2023-02-17T03:01:01.837Z,30.08
2023-02-17T03:02:25.961Z,27.23
2023-02-17T03:03:42.050Z,26.58
2023-02-17T03:05:39.514Z,27.40
2023-02-17T03:06:54.106Z,29.30
2023-02-17T03:08:02.156Z,27.70
2023-02-17T03:09:22.472Z,26.95
2023-02-17T03:10:25.227Z,26.73
2023-02-17T03:11:33.580Z,27.17
2023-02-17T03:12:39.371Z,27.25
2023-02-17T03:13:42.596Z,26.67
2023-02-17T03:14:51.031Z,26.92
2023-02-17T03:15:53.435Z,24.25
2023-02-17T03:16:55.763Z,24.30
2023-02-17T03:18:02.134Z,27.38
2023-02-17T03:19:05.715Z,25.38
2023-02-17T03:20:09.140Z,26.58
2023-02-17T03:21:16.390Z,26.48
2023-02-17T03:22:40.750Z,28.90
2023-02-17T03:23:43.639Z,25.23
2023-02-17T03:24:45.944Z,26.52
2023-02-17T03:25:48.300Z,26.75
2023-02-17T03:26:50.772Z,26.60
2023-02-17T03:27:53.350Z,27.80
2023-02-17T03:28:55.593Z,24.70
2023-02-17T03:29:58.418Z,26.05
2023-02-17T03:31:00.763Z,26.98
2023-02-17T03:32:03.216Z,26.52
2023-02-17T03:33:05.775Z,24.60
2023-02-17T03:34:08.596Z,25.52
2023-02-17T03:35:11.718Z,26.38
2023-02-17T03:36:13.936Z,26.95
2023-02-17T03:37:16.427Z,24.50
2023-02-17T03:38:19.094Z,24.98
2023-02-17T03:39:21.374Z,25.45
2023-02-17T03:40:23.700Z,25.73
2023-02-17T03:41:26.391Z,25.63
2023-02-17T03:42:28.658Z,23.60
2023-02-17T03:43:31.044Z,25.27
2023-02-17T03:44:33.528Z,26.20
2023-02-17T03:45:37.319Z,24.83
2023-02-17T03:46:41.057Z,25.73
2023-02-17T03:47:43.361Z,25.45
2023-02-17T03:48:45.714Z,27.60
2023-02-17T03:49:48.073Z,26.40
2023-02-17T03:50:50.354Z,23.98
2023-02-17T03:51:52.613Z,23.27
2023-02-17T03:52:54.958Z,26.63
2023-02-17T03:53:57.261Z,25.38
2023-02-17T03:54:59.556Z,24.90
2023-02-17T03:56:01.809Z,23.38
2023-02-17T03:57:04.208Z,23.15
2023-02-17T03:58:06.504Z,22.95
2023-02-17T03:59:09.860Z,24.20
2023-02-17T04:00:12.665Z,24.60
2023-02-17T04:01:18.056Z,25.73
2023-02-17T04:02:20.376Z,21.90
2023-02-17T04:03:22.717Z,22.92
2023-02-17T04:04:25.247Z,25.15
2023-02-17T04:05:27.668Z,22.00
2023-02-17T04:06:30.092Z,21.00
2023-02-17T04:07:32.383Z,21.55
2023-02-17T04:08:34.992Z,24.40
2023-02-17T04:09:37.239Z,24.25
2023-02-17T04:10:39.533Z,25.25
2023-02-17T04:11:42.745Z,24.80
2023-02-17T04:12:45.112Z,24.95
2023-02-17T04:13:47.373Z,25.10
2023-02-17T04:14:49.730Z,25.48
2023-02-17T04:15:52.891Z,24.38
2023-02-17T04:16:55.183Z,21.42
2023-02-17T04:17:57.537Z,23.23
2023-02-17T04:18:59.844Z,22.30
2023-02-17T04:20:02.152Z,21.00
2023-02-17T04:21:04.783Z,22.13
2023-02-17T04:22:09.033Z,21.80
2023-02-17T04:23:11.999Z,20.30
2023-02-17T04:24:14.354Z,24.33
2023-02-17T04:25:16.731Z,24.50
2023-02-17T04:26:18.990Z,22.45
2023-02-17T04:27:21.344Z,27.08
2023-02-17T04:28:23.804Z,26.65
2023-02-17T04:29:26.095Z,23.40
2023-02-17T04:30:28.452Z,25.13
2023-02-17T04:31:31.066Z,26.95
2023-02-17T04:32:33.324Z,27.50
2023-02-17T04:33:35.808Z,28.40
2023-02-17T04:34:38.225Z,26.83
2023-02-17T04:35:40.806Z,29.25
2023-02-17T04:36:44.335Z,28.33
2023-02-17T04:37:46.936Z,29.15
2023-02-17T04:38:49.268Z,28.45
2023-02-17T04:39:51.494Z,26.17
2023-02-17T04:40:56.106Z,26.75
2023-02-17T04:41:58.437Z,24.92
2023-02-17T04:43:00.969Z,21.90
2023-02-17T04:44:03.303Z,27.00
2023-02-17T04:45:06.920Z,22.88
2023-02-17T04:46:11.100Z,24.20
2023-02-17T04:47:13.399Z,28.88
2023-02-17T04:48:15.843Z,25.50
2023-02-17T04:49:18.171Z,25.83
2023-02-17T04:50:21.076Z,24.33
2023-02-17T04:51:23.478Z,23.63
2023-02-17T04:52:25.833Z,21.20
2023-02-17T04:53:28.070Z,27.88
2023-02-17T04:54:30.371Z,27.05
2023-02-17T04:55:33.501Z,27.13
2023-02-17T04:56:35.761Z,27.67
2023-02-17T04:57:38.030Z,24.55
2023-02-17T04:58:40.434Z,27.83
2023-02-17T04:59:42.767Z,28.30
2023-02-17T05:00:47.731Z,26.73
2023-02-17T05:01:49.952Z,25.65
2023-02-17T05:02:52.571Z,26.75
2023-02-17T05:03:54.838Z,25.75
2023-02-17T05:04:57.435Z,25.75
2023-02-17T05:05:59.834Z,27.35
2023-02-17T05:07:02.155Z,22.90
2023-02-17T05:08:04.834Z,23.10
2023-02-17T05:09:07.212Z,23.13
2023-02-17T05:10:09.965Z,21.98
2023-02-17T05:11:12.274Z,20.80
2023-02-17T05:12:14.690Z,23.30
2023-02-17T05:13:16.936Z,22.95
2023-02-17T05:14:19.246Z,24.35
2023-02-17T05:15:21.597Z,21.17
2023-02-17T05:16:23.926Z,22.02
2023-02-17T05:17:26.198Z,22.70
2023-02-17T05:18:28.477Z,22.63
2023-02-17T05:19:30.726Z,21.25
2023-02-17T05:20:33.030Z,20.08
2023-02-17T05:21:35.346Z,20.75
2023-02-17T05:22:37.732Z,19.35
2023-02-17T05:23:41.396Z,19.90
2023-02-17T05:24:43.736Z,21.25
2023-02-17T05:25:46.016Z,19.40
2023-02-17T05:26:48.359Z,20.08
2023-02-17T05:27:50.610Z,22.27
2023-02-17T05:28:52.963Z,19.83
2023-02-17T05:29:55.338Z,21.25
2023-02-17T05:30:57.678Z,21.23
2023-02-17T05:32:00.061Z,20.02
2023-02-17T05:33:02.450Z,20.08
2023-02-17T05:34:04.816Z,21.40
2023-02-17T05:35:07.557Z,21.65
2023-02-17T05:36:11.666Z,21.35
2023-02-17T05:37:14.019Z,21.08
2023-02-17T05:38:16.288Z,20.42
2023-02-17T05:39:18.562Z,20.65
2023-02-17T05:40:20.972Z,21.02
2023-02-17T05:41:23.578Z,20.40
2023-02-17T05:42:28.865Z,21.83
2023-02-17T05:43:31.236Z,20.60
2023-02-17T05:44:33.578Z,18.65
2023-02-17T05:45:35.855Z,20.02
2023-02-17T05:46:38.204Z,19.52
2023-02-17T05:47:40.456Z,20.42
2023-02-17T05:48:42.749Z,19.92
2023-02-17T05:49:45.003Z,21.80
2023-02-17T05:50:47.234Z,21.20
2023-02-17T05:51:49.547Z,19.90
2023-02-17T05:52:51.783Z,20.67
2023-02-17T05:53:54.038Z,22.88
2023-02-17T05:54:56.338Z,21.25
2023-02-17T05:55:58.637Z,20.45
2023-02-17T05:57:01.016Z,19.75
2023-02-17T05:58:03.256Z,20.65
2023-02-17T05:59:05.558Z,19.95
2023-02-17T06:00:08.473Z,19.52
2023-02-17T06:01:16.746Z,20.35
2023-02-17T06:02:19.201Z,19.58
2023-02-17T06:03:21.485Z,20.52
2023-02-17T06:04:24.144Z,21.10
2023-02-17T06:05:26.521Z,21.40
2023-02-17T06:06:28.764Z,19.55
2023-02-17T06:07:31.154Z,18.98
2023-02-17T06:08:33.970Z,19.10
2023-02-17T06:09:36.204Z,19.75
2023-02-17T06:10:38.481Z,21.05
2023-02-17T06:11:40.790Z,20.40
2023-02-17T06:12:43.170Z,21.30
2023-02-17T06:13:45.436Z,20.38
2023-02-17T06:14:47.647Z,20.70
2023-02-17T06:15:50.019Z,20.65
2023-02-17T06:16:53.754Z,20.70
2023-02-17T06:17:56.203Z,20.20
2023-02-17T06:19:00.178Z,21.95
2023-02-17T06:20:02.532Z,21.65
2023-02-17T06:21:05.050Z,20.30
2023-02-17T06:22:07.449Z,20.90
2023-02-17T06:23:09.795Z,21.02
2023-02-17T06:24:12.086Z,20.98
2023-02-17T06:25:14.317Z,20.70
2023-02-17T06:26:18.548Z,20.25
2023-02-17T06:27:21.276Z,21.67
2023-02-17T06:28:23.541Z,21.85
2023-02-17T06:29:27.617Z,21.67
2023-02-17T06:30:30.280Z,21.13
2023-02-17T06:31:32.913Z,19.85
2023-02-17T06:32:35.259Z,19.67
2023-02-17T06:33:37.532Z,19.80
2023-02-17T06:34:39.793Z,20.00
2023-02-17T06:35:42.146Z,22.15
2023-02-17T06:36:44.442Z,21.35
2023-02-17T06:37:46.727Z,19.60
2023-02-17T06:38:49.040Z,19.30
2023-02-17T06:39:51.327Z,19.98
2023-02-17T06:40:54.528Z,20.27
2023-02-17T06:41:56.780Z,21.63
2023-02-17T06:42:59.186Z,21.67
2023-02-17T06:44:01.528Z,20.40
2023-02-17T06:45:06.125Z,22.67
2023-02-17T06:46:08.908Z,19.73
2023-02-17T06:47:11.339Z,20.25
2023-02-17T06:48:13.806Z,20.77
2023-02-17T06:49:16.208Z,23.08
2023-02-17T06:50:18.516Z,20.60
2023-02-17T06:51:20.784Z,21.58
2023-02-17T06:52:23.046Z,20.55
2023-02-17T06:53:25.448Z,21.52
2023-02-17T06:54:27.774Z,22.13
2023-02-17T06:55:30.389Z,21.48
2023-02-17T06:56:32.714Z,19.65
2023-02-17T06:57:35.020Z,22.05
2023-02-17T06:58:38.070Z,23.42
2023-02-17T06:59:40.341Z,21.30
2023-02-17T07:00:42.703Z,19.58
2023-02-17T07:01:45.595Z,20.35
2023-02-17T07:02:48.028Z,21.65
2023-02-17T07:03:50.410Z,19.05
2023-02-17T07:04:52.682Z,19.80
2023-02-17T07:06:01.176Z,22.25
2023-02-17T07:07:03.472Z,20.23
2023-02-17T07:08:06.403Z,18.73
2023-02-17T07:09:11.575Z,20.27
2023-02-17T07:10:14.066Z,19.77
2023-02-17T07:11:17.028Z,18.17
2023-02-17T07:12:19.346Z,17.95
2023-02-17T07:13:21.698Z,19.55
2023-02-17T07:14:25.770Z,19.13
2023-02-17T07:15:28.133Z,19.38
2023-02-17T07:16:30.574Z,18.92
2023-02-17T07:17:32.881Z,20.80
2023-02-17T07:18:35.481Z,19.35
2023-02-17T07:19:37.814Z,17.02
2023-02-17T07:20:40.179Z,24.05
2023-02-17T07:21:43.246Z,21.80
2023-02-17T07:22:45.647Z,22.42
2023-02-17T07:23:48.469Z,21.83
2023-02-17T07:24:50.751Z,20.85
2023-02-17T07:25:53.028Z,20.35
2023-02-17T07:26:56.270Z,21.35
2023-02-17T07:28:00.150Z,20.92
2023-02-17T07:29:02.477Z,20.83
2023-02-17T07:30:06.956Z,20.40
2023-02-17T07:31:15.036Z,19.60
2023-02-17T07:32:17.313Z,18.92
2023-02-17T07:33:19.651Z,19.15
2023-02-17T07:34:22.205Z,16.85
2023-02-17T07:35:24.613Z,17.52
2023-02-17T07:36:27.020Z,17.05
2023-02-17T07:37:29.342Z,18.00
2023-02-17T07:38:33.383Z,18.45
2023-02-17T07:39:35.913Z,18.20
2023-02-17T07:40:38.876Z,17.58
2023-02-17T07:41:41.196Z,16.45
2023-02-17T07:42:45.042Z,17.83
2023-02-17T07:43:48.812Z,20.42
2023-02-17T07:44:52.239Z,18.27
2023-02-17T07:45:55.501Z,18.50
2023-02-17T07:46:58.949Z,16.70
2023-02-17T07:48:01.259Z,16.55
2023-02-17T07:49:03.925Z,17.73
2023-02-17T07:50:06.953Z,17.63
2023-02-17T07:51:20.733Z,17.65
2023-02-17T07:52:23.058Z,17.95
2023-02-17T07:53:26.791Z,17.30
2023-02-17T07:54:29.044Z,16.88
2023-02-17T07:55:31.276Z,15.70
2023-02-17T07:56:34.012Z,17.05
2023-02-17T07:57:37.193Z,17.38
2023-02-17T07:58:41.213Z,16.85
2023-02-17T07:59:43.611Z,16.20
2023-02-17T08:00:45.948Z,15.18
2023-02-17T08:01:48.590Z,16.02
2023-02-17T08:02:50.870Z,15.85
2023-02-17T08:03:53.542Z,16.35
2023-02-17T08:04:55.944Z,15.40
2023-02-17T08:05:58.194Z,15.85
2023-02-17T08:07:00.537Z,16.00
2023-02-17T08:08:21.740Z,16.77
2023-02-17T08:09:42.737Z,15.48
2023-02-17T08:11:03.603Z,17.00
2023-02-17T08:12:24.917Z,13.32
2023-02-17T08:13:27.960Z,14.43
2023-02-17T08:14:31.450Z,15.23
2023-02-17T08:15:34.934Z,15.48
2023-02-17T08:16:37.356Z,14.80
2023-02-17T08:17:39.798Z,14.27
2023-02-17T08:18:42.097Z,15.23
2023-02-17T08:19:48.348Z,15.23
2023-02-17T08:20:51.551Z,16.40
2023-02-17T08:21:54.139Z,14.95
2023-02-17T08:22:56.365Z,15.52
2023-02-17T08:23:58.748Z,15.23
2023-02-17T08:25:01.106Z,13.70
2023-02-17T08:26:05.115Z,13.68
2023-02-17T08:27:07.669Z,13.63
2023-02-17T08:28:11.753Z,15.18
2023-02-17T08:29:14.090Z,15.60
2023-02-17T08:30:16.571Z,16.17
2023-02-17T08:31:25.585Z,15.38
2023-02-17T08:32:28.005Z,14.13
2023-02-17T08:33:30.670Z,14.20
2023-02-17T08:34:36.074Z,15.32
2023-02-17T08:35:38.389Z,15.00
2023-02-17T08:36:40.906Z,13.93
2023-02-17T08:37:43.256Z,14.05
2023-02-17T08:38:50.300Z,12.90
2023-02-17T08:39:53.115Z,13.63
2023-02-17T08:40:55.629Z,13.60
2023-02-17T08:41:57.910Z,13.98
2023-02-17T08:43:01.753Z,13.65
2023-02-17T08:44:12.336Z,15.10
2023-02-17T08:45:16.299Z,15.77
2023-02-17T08:46:19.699Z,13.38
2023-02-17T08:47:22.113Z,15.20
2023-02-17T08:48:24.373Z,14.30
2023-02-17T08:49:28.581Z,13.32
2023-02-17T08:50:31.813Z,15.00
2023-02-17T08:51:35.055Z,14.45
2023-02-17T08:52:37.495Z,14.48
2023-02-17T08:53:39.742Z,14.40
2023-02-17T08:54:42.006Z,16.38
2023-02-17T08:55:49.506Z,15.23
2023-02-17T08:56:52.224Z,14.98
2023-02-17T08:57:54.574Z,15.23
2023-02-17T08:58:57.347Z,14.80
2023-02-17T08:59:59.600Z,17.02
2023-02-17T09:01:02.789Z,14.98
2023-02-17T09:02:05.160Z,16.52
2023-02-17T09:03:07.740Z,15.32
2023-02-17T09:04:12.958Z,15.05
2023-02-17T09:05:15.427Z,15.02
2023-02-17T09:06:18.098Z,15.90
2023-02-17T09:07:20.368Z,15.68
2023-02-17T09:08:23.450Z,16.10
2023-02-17T09:09:27.290Z,15.90
2023-02-17T09:10:30.805Z,17.70
2023-02-17T09:11:33.282Z,15.75
2023-02-17T09:12:35.849Z,16.85
2023-02-17T09:13:38.196Z,15.80
2023-02-17T09:14:40.894Z,17.83
2023-02-17T09:15:43.380Z,16.98
2023-02-17T09:16:45.766Z,17.23
2023-02-17T09:17:48.136Z,16.88
2023-02-17T09:18:52.303Z,15.98
2023-02-17T09:19:54.853Z,16.40
2023-02-17T09:20:58.492Z,16.55
2023-02-17T09:22:00.935Z,16.60
2023-02-17T09:23:03.785Z,16.08
2023-02-17T09:24:06.352Z,15.98
2023-02-17T09:25:09.307Z,16.17
2023-02-17T09:26:13.137Z,15.95
2023-02-17T09:27:15.452Z,15.00
2023-02-17T09:28:17.732Z,17.40
2023-02-17T09:29:20.173Z,17.38
2023-02-17T09:30:22.653Z,15.35
2023-02-17T09:31:27.033Z,16.73
2023-02-17T09:32:29.570Z,17.15
2023-02-17T09:33:31.822Z,16.17
2023-02-17T09:34:38.595Z,16.83
2023-02-17T09:35:42.017Z,17.75
2023-02-17T09:36:44.425Z,17.85
2023-02-17T09:37:46.956Z,16.42
2023-02-17T09:38:50.205Z,18.33
2023-02-17T09:39:52.655Z,18.35
2023-02-17T09:40:58.187Z,17.50
2023-02-17T09:42:00.782Z,16.98
2023-02-17T09:43:03.113Z,17.75
2023-02-17T09:44:07.654Z,17.70
2023-02-17T09:45:20.904Z,17.20
2023-02-17T09:46:29.218Z,17.92
2023-02-17T09:47:59.844Z,18.02
2023-02-17T09:49:17.677Z,18.15
2023-02-17T09:50:28.938Z,18.27
2023-02-17T09:51:34.340Z,16.75
2023-02-17T09:52:49.253Z,17.50
2023-02-17T09:54:38.258Z,17.25
2023-02-17T09:55:51.478Z,17.80
2023-02-17T09:56:54.862Z,17.83
2023-02-17T09:58:12.889Z,18.98
2023-02-17T09:59:21.813Z,18.98
2023-02-17T10:00:39.730Z,22.27
2023-02-17T10:01:44.309Z,19.77
2023-02-17T10:03:00.420Z,24.42
2023-02-17T10:04:14.347Z,20.95
2023-02-17T10:05:22.061Z,20.15
2023-02-17T10:06:27.158Z,22.58
2023-02-17T10:08:07.619Z,48.45
2023-02-17T10:09:16.475Z,38.08
2023-02-17T10:10:23.897Z,44.42
2023-02-17T10:11:32.408Z,42.40
2023-02-17T10:12:43.716Z,30.27
2023-02-17T10:13:47.287Z,29.20
2023-02-17T10:14:52.193Z,26.55
2023-02-17T10:15:58.601Z,27.48
2023-02-17T10:17:08.792Z,22.85
2023-02-17T10:18:22.919Z,21.30
2023-02-17T10:19:41.252Z,19.50
2023-02-17T10:21:00.636Z,18.42
2023-02-17T10:22:20.772Z,19.13
2023-02-17T10:23:25.774Z,17.92
2023-02-17T10:24:28.132Z,19.65
2023-02-17T10:26:02.503Z,17.98
2023-02-17T10:27:19.862Z,17.05
2023-02-17T10:28:44.546Z,17.70
2023-02-17T10:30:20.916Z,18.80
2023-02-17T10:31:45.731Z,19.55
2023-02-17T10:32:59.284Z,18.30
2023-02-17T10:34:45.741Z,17.70
2023-02-17T10:35:51.988Z,17.33
2023-02-17T10:37:11.669Z,19.25
2023-02-17T10:38:18.382Z,18.27
2023-02-17T10:39:39.449Z,18.05
2023-02-17T10:40:42.536Z,17.23
2023-02-17T10:41:48.561Z,16.95
2023-02-17T10:42:56.786Z,16.98
2023-02-17T10:44:00.151Z,16.92
2023-02-17T10:45:24.472Z,17.98
2023-02-17T10:46:30.550Z,14.05
2023-02-17T10:47:36.729Z,15.88
2023-02-17T10:48:59.749Z,15.50
2023-02-17T10:50:03.479Z,15.50
2023-02-17T10:51:06.770Z,17.45
2023-02-17T10:52:19.130Z,16.45
2023-02-17T10:53:31.057Z,14.77
2023-02-17T10:54:38.486Z,14.40
2023-02-17T10:56:14.586Z,15.57
2023-02-17T10:57:19.409Z,14.73
2023-02-17T10:58:37.866Z,15.20
2023-02-17T10:59:43.111Z,14.95
2023-02-17T11:00:50.169Z,15.20
2023-02-17T11:01:56.342Z,13.55
2023-02-17T11:02:58.822Z,13.95
2023-02-17T11:04:13.319Z,13.18
2023-02-17T11:05:30.786Z,14.95
2023-02-17T11:06:38.420Z,12.80
2023-02-17T11:07:42.322Z,12.85
2023-02-17T11:09:01.520Z,13.57
2023-02-17T11:10:20.951Z,12.40
2023-02-17T11:11:26.365Z,12.82
2023-02-17T11:12:34.701Z,12.48
2023-02-17T11:13:43.319Z,11.40
2023-02-17T11:14:55.043Z,12.88
2023-02-17T11:15:58.361Z,12.07
2023-02-17T11:17:29.499Z,11.18
2023-02-17T11:18:39.281Z,11.77
2023-02-17T11:19:41.721Z,10.70
2023-02-17T11:20:44.158Z,11.75
2023-02-17T11:21:46.995Z,11.73
2023-02-17T11:23:05.563Z,10.90
2023-02-17T11:24:11.864Z,11.23
2023-02-17T11:25:35.399Z,10.48
2023-02-17T11:26:37.884Z,11.40
2023-02-17T11:27:40.104Z,10.95
2023-02-17T11:28:42.418Z,10.23
2023-02-17T11:29:44.686Z,11.20
2023-02-17T11:30:53.507Z,12.77
2023-02-17T11:31:59.969Z,11.50
2023-02-17T11:33:24.384Z,10.50
2023-02-17T11:34:30.034Z,10.35
2023-02-17T11:35:38.540Z,11.23
2023-02-17T11:36:43.399Z,11.18
2023-02-17T11:37:45.678Z,12.20
2023-02-17T11:38:48.015Z,11.70
2023-02-17T11:39:55.055Z,10.63
2023-02-17T11:41:02.870Z,10.65
2023-02-17T11:42:23.590Z,9.13
2023-02-17T11:43:30.265Z,10.90
2023-02-17T11:44:32.776Z,12.45
2023-02-17T11:45:40.288Z,10.50
2023-02-17T11:46:53.390Z,9.60
2023-02-17T11:48:20.889Z,9.52
2023-02-17T11:50:04.797Z,9.40
2023-02-17T11:51:20.929Z,9.73
2023-02-17T11:52:53.923Z,8.25
2023-02-17T11:54:14.575Z,8.15
2023-02-17T11:55:59.576Z,8.40
2023-02-17T11:57:30.640Z,9.38
2023-02-17T11:58:58.596Z,8.50
2023-02-17T12:00:38.054Z,9.43
2023-02-17T12:01:49.065Z,8.75
2023-02-17T12:03:03.678Z,7.68
2023-02-17T12:04:25.115Z,7.05
2023-02-17T12:05:47.383Z,7.60
2023-02-17T12:07:26.845Z,8.93
2023-02-17T12:08:50.718Z,8.57
2023-02-17T12:10:14.448Z,7.78
2023-02-17T12:11:45.036Z,8.75
2023-02-17T12:13:28.645Z,8.10
2023-02-17T12:14:52.412Z,8.57
2023-02-17T12:16:35.437Z,8.40
2023-02-17T12:17:52.727Z,7.00
2023-02-17T12:19:06.442Z,7.57
2023-02-17T12:20:11.860Z,8.00
2023-02-17T12:21:29.698Z,8.05
2023-02-17T12:22:55.128Z,6.97
2023-02-17T12:24:23.580Z,7.50
2023-02-17T12:25:53.328Z,7.50
2023-02-17T12:27:07.551Z,7.40
2023-02-17T12:28:37.638Z,7.25
2023-02-17T12:30:23.626Z,7.03
2023-02-17T12:31:52.060Z,6.90
2023-02-17T12:33:19.116Z,7.10
2023-02-17T12:34:40.711Z,6.53
2023-02-17T12:36:00.732Z,5.97
2023-02-17T12:37:06.652Z,6.88
2023-02-17T12:38:17.112Z,7.35
2023-02-17T12:39:25.017Z,6.60
2023-02-17T12:40:41.233Z,6.05
2023-02-17T12:41:51.138Z,6.43
2023-02-17T12:42:57.779Z,6.50
2023-02-17T12:44:17.812Z,6.00
2023-02-17T12:45:25.078Z,6.40
2023-02-17T12:46:39.402Z,6.30
2023-02-17T12:47:59.419Z,6.22
2023-02-17T12:49:10.329Z,6.88
2023-02-17T12:50:32.990Z,6.75
2023-02-17T12:51:54.688Z,6.55
2023-02-17T12:53:01.779Z,5.97
2023-02-17T12:54:26.503Z,5.65
2023-02-17T12:55:40.450Z,5.50
2023-02-17T12:56:50.866Z,5.63
2023-02-17T12:57:58.529Z,5.80
2023-02-17T12:59:12.907Z,6.15
2023-02-17T13:00:22.409Z,6.18
2023-02-17T13:01:29.418Z,4.72
2023-02-17T13:02:31.849Z,5.97
2023-02-17T13:03:35.986Z,5.40
2023-02-17T13:04:39.367Z,5.55
2023-02-17T13:06:06.446Z,5.70
2023-02-17T13:07:23.793Z,5.90
2023-02-17T13:08:32.073Z,5.25
2023-02-17T13:09:39.778Z,5.10
2023-02-17T13:10:42.336Z,5.00
2023-02-17T13:11:45.913Z,4.97
2023-02-17T13:13:04.062Z,5.43
2023-02-17T13:14:13.247Z,5.20
2023-02-17T13:15:49.722Z,5.57
2023-02-17T13:16:52.355Z,4.97
2023-02-17T13:18:01.361Z,5.85
2023-02-17T13:19:08.264Z,5.03
2023-02-17T13:20:10.523Z,5.20
2023-02-17T13:21:23.235Z,4.40
2023-02-17T13:22:25.553Z,5.13
2023-02-17T13:23:37.700Z,5.60
2023-02-17T13:24:53.151Z,5.30
2023-02-17T13:26:08.585Z,4.47
2023-02-17T13:27:12.400Z,4.18
2023-02-17T13:28:33.181Z,5.65
2023-02-17T13:29:36.676Z,4.32
2023-02-17T13:30:41.446Z,4.72
2023-02-17T13:32:06.555Z,4.88
2023-02-17T13:33:30.083Z,4.20
2023-02-17T13:34:45.118Z,4.35
2023-02-17T13:35:47.876Z,4.50
2023-02-17T13:36:50.187Z,4.50
2023-02-17T13:37:53.251Z,4.60
2023-02-17T13:39:24.798Z,4.20
2023-02-17T13:40:30.106Z,5.18
2023-02-17T13:41:48.837Z,5.00
2023-02-17T13:42:55.805Z,3.50
2023-02-17T13:43:58.462Z,5.10
2023-02-17T13:45:01.413Z,4.18
2023-02-17T13:46:05.927Z,5.68
2023-02-17T13:47:16.871Z,4.53
2023-02-17T13:48:22.125Z,3.90
2023-02-17T13:49:27.792Z,4.18
2023-02-17T13:50:36.401Z,4.55
2023-02-17T13:51:38.637Z,4.90
2023-02-17T13:52:43.713Z,4.50
2023-02-17T13:53:50.928Z,4.32
2023-02-17T13:55:01.386Z,4.25
2023-02-17T13:56:06.871Z,4.53
2023-02-17T13:57:32.484Z,4.35
2023-02-17T13:58:38.187Z,5.40
2023-02-17T13:59:40.530Z,4.68
2023-02-17T14:00:43.938Z,4.35
2023-02-17T14:01:47.048Z,4.60
2023-02-17T14:02:53.177Z,3.83
2023-02-17T14:03:56.968Z,3.80
2023-02-17T14:05:05.385Z,5.05
2023-02-17T14:06:12.998Z,4.20
2023-02-17T14:07:16.448Z,4.53
2023-02-17T14:08:37.018Z,4.53
2023-02-17T14:09:41.761Z,4.30
2023-02-17T14:10:44.710Z,4.30
2023-02-17T14:11:47.022Z,4.60
2023-02-17T14:12:49.415Z,5.22
2023-02-17T14:13:54.907Z,4.85
2023-02-17T14:14:57.332Z,4.50
2023-02-17T14:16:00.754Z,4.50
2023-02-17T14:17:05.885Z,4.55
2023-02-17T14:18:16.076Z,4.78
2023-02-17T14:19:19.267Z,4.90
2023-02-17T14:20:33.881Z,5.10
2023-02-17T14:21:42.389Z,4.10
2023-02-17T14:22:50.844Z,4.85
2023-02-17T14:24:02.383Z,4.35
2023-02-17T14:25:29.461Z,4.75
2023-02-17T14:26:46.991Z,4.72
2023-02-17T14:27:51.168Z,3.95
2023-02-17T14:28:56.731Z,4.30
2023-02-17T14:29:58.986Z,4.20